createdAt,value
2024-03-06T00:01:20.870Z,42.85
2024-03-06T00:03:47.951Z,46.87
2024-03-06T00:06:14.612Z,45.70
2024-03-06T00:08:41.341Z,47.13
2024-03-06T00:11:09.415Z,54.05
2024-03-06T00:13:36.007Z,50.63
2024-03-06T00:16:02.871Z,53.33
2024-03-06T00:18:29.639Z,52.20
2024-03-06T00:20:56.368Z,53.28
2024-03-06T00:23:23.304Z,54.83
2024-03-06T00:25:49.960Z,48.33
2024-03-06T00:28:16.919Z,46.80
2024-03-06T00:30:43.846Z,50.15
2024-03-06T00:33:10.733Z,50.17
2024-03-06T00:35:37.703Z,53.63
2024-03-06T00:38:04.684Z,43.95
2024-03-06T00:40:34.754Z,52.03
2024-03-06T00:43:01.309Z,58.70
2024-03-06T00:45:27.831Z,57.25
2024-03-06T00:47:54.409Z,53.05
2024-03-06T00:50:23.595Z,52.03
2024-03-06T00:52:50.825Z,58.17
2024-03-06T00:55:17.693Z,48.10
2024-03-06T00:57:44.411Z,49.55
2024-03-06T01:00:14.546Z,50.95
2024-03-06T01:02:41.278Z,56.00
2024-03-06T01:05:11.268Z,60.33
2024-03-06T01:07:40.938Z,53.05
2024-03-06T01:10:08.252Z,58.15
2024-03-06T01:12:34.747Z,60.50
2024-03-06T01:15:01.617Z,57.00
2024-03-06T01:17:28.249Z,59.90
2024-03-06T01:19:55.237Z,63.70
2024-03-06T01:22:22.197Z,59.75
2024-03-06T01:24:51.500Z,51.47
2024-03-06T01:27:18.190Z,54.33
2024-03-06T01:29:44.935Z,65.97
2024-03-06T01:32:11.951Z,57.35
2024-03-06T01:34:38.947Z,64.68
2024-03-06T01:37:05.970Z,70.50
2024-03-06T01:39:32.451Z,63.65
2024-03-06T01:41:58.957Z,69.10
2024-03-06T01:44:25.409Z,73.28
2024-03-06T01:46:51.878Z,72.53
2024-03-06T01:49:28.229Z,68.60
2024-03-06T01:52:00.773Z,65.32
2024-03-06T01:54:27.999Z,70.53
2024-03-06T01:56:55.853Z,66.35
2024-03-06T01:59:31.827Z,73.22
2024-03-06T02:02:04.291Z,56.10
2024-03-06T02:04:31.953Z,64.57
2024-03-06T02:06:58.861Z,70.07
2024-03-06T02:09:25.798Z,72.90
2024-03-06T02:11:52.308Z,79.60
2024-03-06T02:14:18.984Z,73.13
2024-03-06T02:16:45.915Z,66.47
2024-03-06T02:19:13.008Z,85.57
2024-03-06T02:21:39.754Z,67.90
2024-03-06T02:24:06.503Z,54.03
2024-03-06T02:26:33.343Z,60.70
2024-03-06T02:28:59.914Z,58.08
2024-03-06T02:31:26.350Z,68.57
2024-03-06T02:33:52.958Z,63.42
2024-03-06T02:36:19.821Z,70.45
2024-03-06T02:38:46.769Z,69.18
2024-03-06T02:41:15.132Z,74.68
2024-03-06T02:43:41.839Z,62.33
2024-03-06T02:46:08.445Z,78.13
2024-03-06T02:48:34.941Z,82.70
2024-03-06T02:51:01.568Z,77.40
2024-03-06T02:53:29.100Z,58.28
2024-03-06T02:55:55.658Z,64.73
2024-03-06T02:58:22.441Z,63.38
2024-03-06T03:00:49.138Z,61.83
2024-03-06T03:03:15.664Z,78.85
2024-03-06T03:05:42.342Z,68.50
2024-03-06T03:08:09.666Z,68.33
2024-03-06T03:10:36.465Z,80.57
2024-03-06T03:13:03.599Z,78.32
2024-03-06T03:15:30.202Z,78.43
2024-03-06T03:17:56.775Z,73.25
2024-03-06T03:20:23.348Z,73.83
2024-03-06T03:22:50.562Z,88.55
2024-03-06T03:25:17.132Z,93.32
2024-03-06T03:27:46.699Z,96.20
2024-03-06T03:30:13.818Z,91.30
2024-03-06T03:32:41.058Z,76.90
2024-03-06T03:35:08.476Z,81.35
2024-03-06T03:37:35.418Z,90.13
2024-03-06T03:40:02.579Z,88.75
2024-03-06T03:42:29.793Z,78.60
2024-03-06T03:44:56.800Z,82.00
2024-03-06T03:47:23.346Z,78.35
2024-03-06T03:50:02.628Z,77.43
2024-03-06T03:52:33.708Z,69.78
2024-03-06T03:55:00.382Z,67.35
2024-03-06T03:57:26.952Z,78.03
2024-03-06T03:59:53.486Z,93.03
2024-03-06T04:02:20.131Z,76.25
2024-03-06T04:04:46.626Z,79.40
2024-03-06T04:07:13.888Z,79.47
2024-03-06T04:09:40.586Z,73.93
2024-03-06T04:12:07.412Z,84.72
2024-03-06T04:14:33.974Z,91.15
2024-03-06T04:17:00.463Z,77.05
2024-03-06T04:19:27.171Z,90.28
2024-03-06T04:21:53.705Z,82.57
2024-03-06T04:24:20.111Z,79.60
2024-03-06T04:26:46.646Z,81.68
2024-03-06T04:29:13.466Z,89.15
2024-03-06T04:31:39.988Z,85.22
2024-03-06T04:34:06.667Z,92.13
2024-03-06T04:36:33.080Z,77.22
2024-03-06T04:39:00.261Z,76.43
2024-03-06T04:41:27.052Z,76.93
2024-03-06T04:43:54.046Z,67.85
2024-03-06T04:46:20.878Z,81.93
2024-03-06T04:48:48.559Z,76.63
2024-03-06T04:51:15.503Z,82.65
2024-03-06T04:53:43.490Z,70.55
2024-03-06T04:56:10.888Z,69.15
2024-03-06T04:58:37.670Z,70.83
2024-03-06T05:01:08.037Z,79.20
2024-03-06T05:58:27.096Z,80.95
2024-03-06T06:00:53.728Z,99.10
2024-03-06T06:03:20.577Z,99.05
2024-03-06T06:05:47.355Z,89.87
2024-03-06T06:08:13.987Z,87.82
2024-03-06T06:10:41.159Z,79.28
2024-03-06T06:13:07.693Z,96.30
2024-03-06T06:15:34.794Z,82.63
2024-03-06T06:18:01.435Z,105.40
2024-03-06T06:20:28.253Z,95.93
2024-03-06T06:22:54.844Z,100.30
2024-03-06T06:25:21.663Z,174.40
2024-03-06T06:27:50.795Z,416.73
2024-03-06T06:30:17.714Z,184.53
2024-03-06T06:32:44.817Z,135.48
2024-03-06T06:35:12.971Z,133.80
2024-03-06T06:37:40.471Z,105.85
2024-03-06T06:40:09.234Z,119.28
2024-03-06T06:42:36.187Z,114.47
2024-03-06T06:45:03.783Z,101.10
2024-03-06T06:47:30.524Z,109.07
2024-03-06T06:49:57.149Z,79.60
2024-03-06T06:52:24.074Z,102.78
2024-03-06T06:54:52.366Z,86.93
2024-03-06T06:57:19.596Z,88.60
2024-03-06T06:59:46.251Z,83.53
2024-03-06T07:02:12.900Z,114.43
2024-03-06T07:04:39.650Z,92.07
2024-03-06T07:07:06.496Z,96.73
2024-03-06T07:09:33.107Z,94.70
2024-03-06T07:12:00.448Z,95.15
2024-03-06T07:14:27.340Z,91.40
2024-03-06T07:16:53.839Z,92.28
2024-03-06T07:19:20.483Z,94.63
2024-03-06T07:21:47.138Z,86.30
2024-03-06T07:24:13.649Z,85.90
2024-03-06T07:26:40.794Z,77.28
2024-03-06T07:29:14.145Z,100.10
2024-03-06T07:31:41.454Z,97.83
2024-03-06T07:34:09.603Z,88.82
2024-03-06T07:36:36.458Z,94.80
2024-03-06T07:39:04.144Z,88.15
2024-03-06T07:41:30.789Z,86.80
2024-03-06T07:43:58.216Z,67.20
2024-03-06T07:46:24.944Z,68.22
2024-03-06T07:48:52.614Z,64.63
2024-03-06T07:51:19.357Z,61.50
2024-03-06T07:53:47.000Z,57.75
2024-03-06T07:56:14.103Z,59.90
2024-03-06T07:58:40.992Z,49.00
2024-03-06T08:01:08.603Z,51.05
2024-03-06T08:03:35.425Z,49.22
2024-03-06T08:06:02.014Z,45.13
2024-03-06T08:08:28.727Z,46.60
2024-03-06T08:10:55.355Z,42.67
2024-03-06T08:13:23.349Z,44.60
2024-03-06T08:15:50.108Z,44.78
2024-03-06T08:18:16.896Z,43.58
2024-03-06T08:20:43.998Z,37.93
2024-03-06T08:23:13.846Z,34.63
2024-03-06T08:25:40.596Z,38.85
2024-03-06T08:28:07.466Z,36.05
2024-03-06T08:30:34.211Z,38.78
2024-03-06T08:33:02.099Z,34.07
2024-03-06T08:35:29.263Z,33.67
2024-03-06T08:37:55.839Z,31.95
2024-03-06T08:40:24.715Z,32.83
2024-03-06T08:42:51.574Z,35.72
2024-03-06T08:45:18.934Z,35.40
2024-03-06T08:47:46.247Z,33.67
2024-03-06T08:50:13.659Z,30.52
2024-03-06T08:52:40.725Z,32.38
2024-03-06T08:55:07.516Z,32.83
2024-03-06T08:57:37.697Z,32.53
2024-03-06T09:00:04.851Z,30.83
2024-03-06T09:02:31.800Z,33.95
2024-03-06T09:04:58.273Z,32.60
2024-03-06T09:07:25.049Z,32.17
2024-03-06T09:09:54.806Z,34.67
2024-03-06T09:12:21.320Z,31.48
2024-03-06T09:14:47.825Z,30.48
2024-03-06T09:17:15.902Z,30.92
2024-03-06T09:19:51.566Z,27.88
2024-03-06T09:22:26.788Z,25.83
2024-03-06T09:24:53.491Z,28.98
2024-03-06T09:27:20.161Z,26.77
2024-03-06T09:29:46.686Z,27.95
2024-03-06T09:32:19.598Z,30.30
2024-03-06T09:34:46.503Z,27.77
2024-03-06T09:37:13.019Z,27.75
2024-03-06T09:39:39.828Z,25.15
2024-03-06T09:42:06.632Z,26.80
2024-03-06T09:44:33.175Z,23.88
2024-03-06T09:47:00.659Z,23.00
2024-03-06T09:49:27.198Z,25.45
2024-03-06T09:51:54.985Z,26.38
2024-03-06T09:54:21.501Z,26.17
2024-03-06T09:56:48.504Z,23.77
2024-03-06T09:59:18.665Z,24.57
2024-03-06T10:01:49.539Z,28.00
2024-03-06T10:04:22.798Z,25.67
2024-03-06T10:06:49.765Z,23.77
2024-03-06T10:09:22.740Z,22.23
2024-03-06T10:11:49.489Z,25.07
2024-03-06T10:14:16.620Z,21.23
2024-03-06T10:16:57.573Z,23.35
2024-03-06T10:19:25.095Z,23.42
2024-03-06T10:21:53.110Z,24.00
2024-03-06T10:24:24.668Z,22.57
2024-03-06T10:26:52.755Z,25.67
2024-03-06T10:29:20.056Z,28.00
2024-03-06T10:31:50.225Z,24.83
2024-03-06T10:34:17.269Z,25.15
2024-03-06T10:36:43.918Z,25.17
2024-03-06T10:39:11.929Z,25.17
2024-03-06T10:41:41.603Z,20.75
2024-03-06T10:44:14.902Z,20.83
2024-03-06T10:46:45.036Z,21.17
2024-03-06T10:49:13.391Z,21.27
2024-03-06T10:51:43.433Z,20.33
2024-03-06T10:54:10.443Z,18.65
2024-03-06T10:56:38.083Z,19.10
2024-03-06T10:59:04.780Z,19.98
2024-03-06T11:01:33.520Z,19.67
2024-03-06T11:04:01.435Z,20.92
2024-03-06T11:06:28.153Z,22.25
2024-03-06T11:08:54.935Z,21.13
2024-03-06T11:11:22.899Z,24.73
2024-03-06T11:13:50.199Z,24.13
2024-03-06T11:16:16.874Z,23.15
2024-03-06T11:18:44.423Z,25.52
2024-03-06T11:21:10.990Z,38.92
2024-03-06T11:23:57.456Z,81.65
2024-03-06T11:26:24.726Z,64.33
2024-03-06T11:28:52.459Z,19.42
2024-03-06T11:31:21.441Z,17.38
2024-03-06T11:33:49.036Z,17.60
2024-03-06T11:36:18.309Z,17.02
2024-03-06T11:39:08.497Z,17.90
2024-03-06T11:41:44.575Z,18.45
2024-03-06T11:44:14.493Z,19.55
2024-03-06T11:46:42.502Z,20.40
2024-03-06T11:49:22.525Z,21.10
2024-03-06T11:51:49.533Z,19.33
2024-03-06T11:54:16.541Z,20.05
2024-03-06T11:56:46.111Z,20.50
2024-03-06T11:59:13.050Z,23.20
2024-03-06T12:01:39.787Z,21.52
2024-03-06T12:04:07.515Z,20.80
2024-03-06T12:06:34.201Z,21.95
2024-03-06T12:09:00.768Z,21.67
2024-03-06T12:11:29.374Z,20.88
2024-03-06T12:13:57.055Z,23.30
2024-03-06T12:16:23.820Z,23.50
2024-03-06T12:18:58.870Z,21.42
2024-03-06T12:21:35.595Z,23.38
2024-03-06T12:24:11.239Z,22.83
2024-03-06T12:26:38.235Z,23.63
2024-03-06T12:29:13.871Z,23.10
2024-03-06T12:31:43.123Z,23.08
2024-03-06T12:34:14.440Z,23.58
2024-03-06T12:36:41.036Z,24.42
2024-03-06T12:39:14.168Z,23.33
2024-03-06T12:41:41.788Z,24.50
2024-03-06T12:44:08.478Z,23.98
2024-03-06T12:46:35.904Z,23.77
2024-03-06T12:49:02.664Z,23.58
2024-03-06T12:51:29.112Z,22.52
2024-03-06T12:53:55.548Z,22.40
2024-03-06T12:56:22.104Z,23.00
2024-03-06T12:58:48.881Z,23.23
2024-03-06T13:01:15.392Z,23.67
2024-03-06T13:03:41.970Z,24.80
2024-03-06T13:06:08.826Z,23.63
2024-03-06T13:08:35.426Z,22.58
2024-03-06T13:11:02.137Z,23.70
2024-03-06T13:13:30.934Z,22.88
2024-03-06T13:15:57.729Z,23.55
2024-03-06T13:18:24.450Z,25.63
2024-03-06T13:20:51.135Z,25.02
2024-03-06T13:23:17.786Z,27.50
2024-03-06T13:25:44.984Z,26.48
2024-03-06T13:28:11.606Z,27.83
2024-03-06T13:30:40.125Z,25.63
2024-03-06T13:33:06.895Z,25.63
2024-03-06T13:35:33.510Z,25.20
2024-03-06T13:38:00.020Z,26.38
2024-03-06T13:40:28.132Z,27.00
2024-03-06T13:42:54.669Z,27.07
2024-03-06T13:45:22.055Z,27.33
2024-03-06T13:47:50.159Z,26.23
2024-03-06T13:50:17.009Z,25.05
2024-03-06T13:52:44.569Z,24.90
2024-03-06T13:55:11.377Z,24.20
2024-03-06T13:57:38.415Z,24.17
2024-03-06T14:00:13.945Z,25.75
2024-03-06T14:02:41.163Z,25.25
2024-03-06T14:05:08.382Z,26.20
2024-03-06T14:07:35.540Z,27.63
2024-03-06T14:10:05.221Z,26.52
2024-03-06T14:12:33.004Z,25.10
2024-03-06T14:14:59.975Z,26.33
2024-03-06T14:17:26.873Z,26.33
2024-03-06T14:19:53.573Z,24.00
2024-03-06T14:22:20.384Z,24.27
2024-03-06T14:24:47.252Z,26.15
2024-03-06T14:27:17.385Z,25.65
2024-03-06T14:29:44.515Z,25.50
2024-03-06T14:32:11.432Z,24.53
2024-03-06T14:34:38.210Z,24.55
2024-03-06T14:37:05.007Z,24.05
2024-03-06T14:39:31.654Z,23.65
2024-03-06T14:41:58.310Z,24.65
2024-03-06T14:44:24.888Z,24.10
2024-03-06T14:46:51.453Z,22.95
2024-03-06T14:49:18.169Z,24.75
2024-03-06T14:51:44.654Z,24.40
2024-03-06T14:54:11.311Z,24.45
2024-03-06T14:56:38.018Z,25.53
2024-03-06T14:59:05.155Z,24.55
2024-03-06T15:01:31.809Z,24.17
2024-03-06T15:03:59.564Z,23.95
2024-03-06T15:06:26.897Z,24.95
2024-03-06T15:08:54.233Z,24.60
2024-03-06T15:11:23.836Z,24.13
2024-03-06T15:13:50.732Z,24.00
2024-03-06T15:16:17.753Z,25.27
2024-03-06T15:18:45.128Z,24.45
2024-03-06T15:21:12.514Z,23.70
2024-03-06T15:23:39.148Z,24.38
2024-03-06T15:26:05.751Z,24.02
2024-03-06T15:28:32.301Z,23.60
2024-03-06T15:30:58.928Z,22.58
2024-03-06T15:33:26.814Z,23.70
2024-03-06T15:35:53.840Z,21.75
2024-03-06T15:38:21.844Z,22.80
2024-03-06T15:40:51.618Z,23.55
2024-03-06T15:43:18.981Z,23.60
2024-03-06T15:45:46.203Z,22.63
2024-03-06T15:48:16.285Z,22.65
2024-03-06T15:50:43.264Z,23.58
2024-03-06T15:53:10.194Z,22.45
2024-03-06T15:55:37.691Z,22.58
2024-03-06T15:58:04.987Z,24.53
2024-03-06T16:00:32.179Z,24.00
2024-03-06T16:03:01.436Z,24.38
2024-03-06T16:05:28.247Z,24.13
2024-03-06T16:08:04.478Z,23.92
2024-03-06T16:10:32.237Z,22.93
2024-03-06T16:12:59.003Z,23.63
2024-03-06T16:15:25.785Z,23.75
2024-03-06T16:17:53.448Z,23.90
2024-03-06T16:20:21.618Z,25.95
2024-03-06T16:22:48.259Z,26.03
2024-03-06T16:25:15.266Z,25.00
2024-03-06T16:27:41.842Z,27.55
2024-03-06T16:30:09.983Z,29.15
2024-03-06T16:32:36.781Z,29.77
2024-03-06T16:35:05.265Z,29.23
2024-03-06T16:37:32.080Z,29.77
2024-03-06T16:39:58.663Z,31.45
2024-03-06T16:42:25.230Z,30.50
2024-03-06T16:44:51.787Z,29.48
2024-03-06T16:47:18.733Z,26.70
2024-03-06T16:49:45.485Z,28.45
2024-03-06T16:52:14.497Z,30.17
2024-03-06T16:54:42.305Z,30.27
2024-03-06T16:57:11.918Z,29.98
2024-03-06T16:59:39.175Z,29.17
2024-03-06T17:02:06.353Z,32.42
2024-03-06T17:04:32.870Z,31.38
2024-03-06T17:07:00.575Z,31.40
2024-03-06T17:09:27.229Z,33.85
2024-03-06T17:11:54.032Z,36.47
2024-03-06T17:14:20.956Z,35.45
2024-03-06T17:16:47.580Z,33.13
2024-03-06T17:19:14.382Z,35.17
2024-03-06T17:21:40.845Z,34.03
2024-03-06T17:24:07.516Z,38.77
2024-03-06T17:26:39.060Z,36.60
2024-03-06T17:29:06.430Z,38.53
2024-03-06T17:31:33.448Z,35.13
2024-03-06T17:34:01.427Z,37.17
2024-03-06T17:36:28.132Z,35.93
2024-03-06T17:38:55.077Z,32.55
2024-03-06T17:41:21.639Z,35.00
2024-03-06T17:43:48.192Z,36.38
2024-03-06T17:46:14.886Z,37.47
2024-03-06T17:48:41.818Z,38.73
2024-03-06T17:51:08.793Z,39.67
2024-03-06T17:53:35.412Z,35.55
2024-03-06T17:56:04.072Z,34.78
2024-03-06T17:58:30.856Z,37.13
2024-03-06T18:00:57.458Z,40.40
2024-03-06T18:03:25.513Z,37.33
2024-03-06T18:05:52.379Z,41.58
2024-03-06T18:08:19.111Z,42.10
2024-03-06T18:10:45.651Z,40.20
2024-03-06T18:13:12.089Z,42.03
2024-03-06T18:15:38.577Z,39.95
2024-03-06T18:18:05.440Z,43.17
2024-03-06T18:20:32.172Z,40.78
2024-03-06T18:22:58.839Z,38.70
2024-03-06T18:25:25.877Z,47.20
2024-03-06T18:27:54.212Z,39.25
2024-03-06T18:30:20.904Z,41.63
2024-03-06T18:32:48.030Z,40.25
2024-03-06T18:35:14.653Z,42.30
2024-03-06T18:37:41.293Z,40.20
2024-03-06T18:40:07.980Z,40.95
2024-03-06T18:42:34.473Z,38.65
2024-03-06T18:45:00.993Z,37.05
2024-03-06T18:47:27.547Z,37.92
2024-03-06T18:49:54.040Z,35.07
2024-03-06T18:52:22.152Z,33.78
2024-03-06T18:54:48.648Z,37.15
2024-03-06T18:57:15.053Z,32.60
2024-03-06T18:59:42.129Z,35.63
2024-03-06T19:02:08.770Z,35.73
2024-03-06T19:04:38.085Z,43.60
2024-03-06T19:07:05.056Z,36.85
2024-03-06T19:09:31.558Z,30.08
2024-03-06T19:11:58.236Z,33.28
2024-03-06T19:14:24.779Z,38.37
2024-03-06T19:16:51.378Z,34.95
2024-03-06T19:19:17.837Z,33.00
2024-03-06T19:21:44.267Z,32.67
2024-03-06T19:24:12.166Z,34.40
2024-03-06T19:26:39.123Z,34.30
2024-03-06T19:29:06.154Z,35.67
2024-03-06T19:31:35.719Z,37.72
2024-03-06T19:34:03.826Z,35.63
2024-03-06T19:36:30.891Z,36.05
2024-03-06T19:38:57.263Z,35.90
2024-03-06T19:41:24.573Z,38.53
2024-03-06T19:43:51.409Z,37.13
2024-03-06T19:46:18.149Z,38.90
2024-03-06T19:48:44.921Z,41.78
2024-03-06T19:51:13.426Z,39.50
2024-03-06T19:53:41.981Z,38.33
2024-03-06T19:56:11.839Z,37.72
2024-03-06T19:58:38.339Z,42.78
2024-03-06T20:01:04.761Z,41.45
2024-03-06T20:03:31.438Z,42.93
2024-03-06T20:05:58.046Z,43.58
2024-03-06T20:08:26.316Z,44.13
2024-03-06T20:10:53.428Z,42.95
2024-03-06T20:13:20.012Z,42.38
2024-03-06T20:15:46.684Z,41.53
2024-03-06T20:18:13.551Z,47.92
2024-03-06T20:20:43.872Z,48.70
2024-03-06T20:23:13.369Z,43.38
2024-03-06T20:25:41.761Z,47.35
2024-03-06T20:28:09.391Z,42.37
2024-03-06T20:30:39.021Z,47.55
2024-03-06T20:33:06.090Z,45.80
2024-03-06T20:35:32.733Z,43.85
2024-03-06T20:37:59.171Z,48.35
2024-03-06T20:40:28.701Z,42.97
2024-03-06T20:42:56.575Z,45.45
2024-03-06T20:45:23.565Z,45.53
2024-03-06T20:47:50.109Z,49.08
2024-03-06T20:50:16.868Z,47.22
2024-03-06T20:52:43.373Z,53.03
2024-03-06T20:55:09.957Z,46.20
2024-03-06T20:57:36.771Z,47.20
2024-03-06T21:00:04.810Z,49.25
2024-03-06T21:02:31.482Z,47.50
2024-03-06T21:04:58.053Z,48.43
2024-03-06T21:07:24.723Z,46.53
2024-03-06T21:09:51.442Z,49.90
2024-03-06T21:12:17.928Z,45.03
2024-03-06T21:14:44.957Z,45.35
2024-03-06T21:17:12.027Z,44.80
2024-03-06T21:19:38.915Z,57.22
2024-03-06T21:22:06.114Z,50.88
2024-03-06T21:24:33.701Z,48.97
2024-03-06T21:27:00.290Z,54.28
2024-03-06T21:29:28.294Z,56.80
2024-03-06T21:31:57.346Z,52.58
2024-03-06T21:34:23.841Z,51.88
2024-03-06T21:36:50.304Z,51.22
2024-03-06T21:39:16.898Z,58.83
2024-03-06T21:41:43.746Z,48.73
2024-03-06T21:44:10.430Z,58.10
2024-03-06T21:46:37.071Z,52.13
2024-03-06T21:49:03.688Z,57.30
2024-03-06T21:51:30.857Z,55.67
2024-03-06T21:53:57.453Z,60.27
2024-03-06T21:56:24.116Z,57.35
2024-03-06T21:58:51.027Z,56.95
2024-03-06T22:01:17.573Z,61.90
2024-03-06T22:03:43.997Z,61.92
2024-03-06T22:06:10.828Z,57.93
2024-03-06T22:08:39.353Z,57.92
2024-03-06T22:11:10.134Z,65.18
2024-03-06T22:13:37.148Z,61.80
2024-03-06T22:16:04.156Z,63.40
2024-03-06T22:18:30.813Z,64.47
2024-03-06T22:20:57.954Z,67.90
2024-03-06T22:23:25.280Z,62.97
2024-03-06T22:25:51.763Z,63.78
2024-03-06T22:28:18.399Z,70.22
2024-03-06T22:30:46.775Z,67.10
2024-03-06T22:33:13.685Z,70.45
2024-03-06T22:35:43.472Z,65.03
2024-03-06T22:38:10.227Z,69.15
2024-03-06T22:40:37.781Z,70.80
2024-03-06T22:43:06.447Z,74.63
2024-03-06T22:45:33.236Z,67.55
2024-03-06T22:48:00.049Z,68.25
2024-03-06T22:50:27.143Z,75.95
2024-03-06T22:52:54.077Z,75.60
2024-03-06T22:55:20.867Z,75.67
2024-03-06T22:57:47.504Z,68.82
2024-03-06T23:00:30.525Z,72.45
2024-03-06T23:02:58.169Z,71.20
2024-03-06T23:05:25.498Z,77.40
2024-03-06T23:07:52.448Z,70.63
2024-03-06T23:10:19.639Z,74.68
2024-03-06T23:12:48.188Z,75.78
2024-03-06T23:15:16.204Z,79.70
2024-03-06T23:17:47.775Z,71.03
2024-03-06T23:20:15.575Z,78.07
2024-03-06T23:22:42.919Z,74.88
2024-03-06T23:25:12.330Z,82.45
2024-03-06T23:27:40.270Z,78.53
2024-03-06T23:30:08.956Z,79.60
2024-03-06T23:32:35.950Z,77.67
2024-03-06T23:35:04.722Z,76.43
2024-03-06T23:37:31.670Z,76.40
2024-03-06T23:39:58.381Z,78.55
2024-03-06T23:42:24.956Z,79.45
2024-03-06T23:44:51.438Z,82.50
2024-03-06T23:47:17.941Z,80.78
2024-03-06T23:49:44.470Z,86.82
2024-03-06T23:52:11.148Z,78.05
2024-03-06T23:54:37.917Z,82.22
2024-03-06T23:57:04.674Z,79.33
2024-03-06T23:59:31.734Z,83.05
